sensor_id;sensor_type;location;lat;lon;timestamp;pressure;altitude;pressure_sealevel;temperature;humidity
19112;BME280;9688;51.906;8.376;2022-11-11T00:01:54;102001.94;;;10.12;88.14
19112;BME280;9688;51.906;8.376;2022-11-11T00:04:52;101998.47;;;10.07;87.74
19112;BME280;9688;51.906;8.376;2022-11-11T00:07:37;102002.88;;;10.07;87.48
19112;BME280;9688;51.906;8.376;2022-11-11T00:10:25;101997.66;;;10.02;87.61
19112;BME280;9688;51.906;8.376;2022-11-11T00:13:10;101996.78;;;10.00;87.63
19112;BME280;9688;51.906;8.376;2022-11-11T00:16:06;101998.63;;;9.96;88.18
19112;BME280;9688;51.906;8.376;2022-11-11T00:18:52;101989.81;;;9.94;88.35
19112;BME280;9688;51.906;8.376;2022-11-11T00:21:55;101994.28;;;9.91;87.77
19112;BME280;9688;51.906;8.376;2022-11-11T00:24:59;101995.25;;;9.87;88.02
19112;BME280;9688;51.906;8.376;2022-11-11T00:27:52;101995.25;;;9.83;88.29
19112;BME280;9688;51.906;8.376;2022-11-11T00:30:37;101997.03;;;9.83;88.75
19112;BME280;9688;51.906;8.376;2022-11-11T00:33:23;101999.72;;;9.80;88.53
19112;BME280;9688;51.906;8.376;2022-11-11T00:36:09;102007.63;;;9.80;88.39
19112;BME280;9688;51.906;8.376;2022-11-11T00:38:54;101997.97;;;9.79;88.21
19112;BME280;9688;51.906;8.376;2022-11-11T00:41:41;101997.97;;;9.77;87.65
19112;BME280;9688;51.906;8.376;2022-11-11T00:44:28;101998.88;;;9.75;88.80
19112;BME280;9688;51.906;8.376;2022-11-11T00:47:13;102004.16;;;9.76;88.53
19112;BME280;9688;51.906;8.376;2022-11-11T00:50:18;102000.66;;;9.76;87.40
19112;BME280;9688;51.906;8.376;2022-11-11T00:53:23;101989.22;;;9.74;88.33
19112;BME280;9688;51.906;8.376;2022-11-11T00:56:09;101998.97;;;9.70;87.60
19112;BME280;9688;51.906;8.376;2022-11-11T00:58:54;101997.25;;;9.68;88.00
19112;BME280;9688;51.906;8.376;2022-11-11T01:01:41;101996.38;;;9.67;88.71
19112;BME280;9688;51.906;8.376;2022-11-11T01:04:27;102001.66;;;9.66;88.03
19112;BME280;9688;51.906;8.376;2022-11-11T01:07:12;102017.53;;;9.63;88.17
19112;BME280;9688;51.906;8.376;2022-11-11T01:09:57;102018.41;;;9.61;87.68
19112;BME280;9688;51.906;8.376;2022-11-11T01:12:42;102016.72;;;9.59;88.51
19112;BME280;9688;51.906;8.376;2022-11-11T01:15:32;102018.50;;;9.55;88.43
19112;BME280;9688;51.906;8.376;2022-11-11T01:18:20;102018.53;;;9.54;88.62
19112;BME280;9688;51.906;8.376;2022-11-11T01:21:09;102011.47;;;9.53;88.10
19112;BME280;9688;51.906;8.376;2022-11-11T01:23:55;102015.03;;;9.50;88.38
19112;BME280;9688;51.906;8.376;2022-11-11T01:26:41;102009.81;;;9.46;88.51
19112;BME280;9688;51.906;8.376;2022-11-11T01:29:26;102015.97;;;9.45;88.58
19112;BME280;9688;51.906;8.376;2022-11-11T01:32:12;102023.91;;;9.43;89.23
19112;BME280;9688;51.906;8.376;2022-11-11T01:34:59;102023.97;;;9.40;88.91
19112;BME280;9688;51.906;8.376;2022-11-11T01:37:44;102031.00;;;9.40;88.31
19112;BME280;9688;51.906;8.376;2022-11-11T01:40:30;102031.00;;;9.38;88.07
19112;BME280;9688;51.906;8.376;2022-11-11T01:43:24;102032.78;;;9.36;88.51
19112;BME280;9688;51.906;8.376;2022-11-11T01:46:17;102035.41;;;9.36;88.35
19112;BME280;9688;51.906;8.376;2022-11-11T01:49:19;102031.94;;;9.32;89.22
19112;BME280;9688;51.906;8.376;2022-11-11T01:52:09;102038.97;;;9.33;88.54
19112;BME280;9688;51.906;8.376;2022-11-11T01:54:58;102035.50;;;9.31;88.20
19112;BME280;9688;51.906;8.376;2022-11-11T01:57:49;102039.03;;;9.29;88.50
19112;BME280;9688;51.906;8.376;2022-11-11T02:00:36;102036.41;;;9.27;88.46
19112;BME280;9688;51.906;8.376;2022-11-11T02:03:22;102039.06;;;9.23;88.79
19112;BME280;9688;51.906;8.376;2022-11-11T02:06:10;102032.09;;;9.19;88.69
19112;BME280;9688;51.906;8.376;2022-11-11T02:08:55;102025.09;;;9.16;88.77
19112;BME280;9688;51.906;8.376;2022-11-11T02:11:41;102032.13;;;9.15;89.04
19112;BME280;9688;51.906;8.376;2022-11-11T02:14:47;102026.88;;;9.12;88.92
19112;BME280;9688;51.906;8.376;2022-11-11T02:17:33;102022.50;;;9.10;88.86
19112;BME280;9688;51.906;8.376;2022-11-11T02:20:21;102019.88;;;9.08;88.96
19112;BME280;9688;51.906;8.376;2022-11-11T02:23:12;102022.53;;;9.05;89.44
19112;BME280;9688;51.906;8.376;2022-11-11T02:26:01;102021.72;;;9.02;89.74
19112;BME280;9688;51.906;8.376;2022-11-11T02:28:50;102017.34;;;9.01;89.07
19112;BME280;9688;51.906;8.376;2022-11-11T02:31:37;102022.59;;;9.01;89.64
19112;BME280;9688;51.906;8.376;2022-11-11T02:34:28;102026.16;;;8.98;89.67
19112;BME280;9688;51.906;8.376;2022-11-11T02:37:20;102025.25;;;8.98;89.19
19112;BME280;9688;51.906;8.376;2022-11-11T02:40:07;102026.16;;;8.98;90.02
19112;BME280;9688;51.906;8.376;2022-11-11T02:42:55;102029.66;;;8.99;89.60
19112;BME280;9688;51.906;8.376;2022-11-11T02:45:40;102037.53;;;9.00;89.81
19112;BME280;9688;51.906;8.376;2022-11-11T02:48:26;102041.03;;;9.04;89.09
19112;BME280;9688;51.906;8.376;2022-11-11T02:51:12;102037.50;;;9.06;88.97
19112;BME280;9688;51.906;8.376;2022-11-11T02:53:58;102039.25;;;9.07;89.55
19112;BME280;9688;51.906;8.376;2022-11-11T02:56:43;102041.84;;;9.10;89.34
19112;BME280;9688;51.906;8.376;2022-11-11T02:59:48;102042.72;;;9.11;88.92
19112;BME280;9688;51.906;8.376;2022-11-11T03:02:33;102040.06;;;9.12;88.62
19112;BME280;9688;51.906;8.376;2022-11-11T03:05:19;102041.84;;;9.12;89.02
19112;BME280;9688;51.906;8.376;2022-11-11T03:08:05;102043.59;;;9.13;89.13
19112;BME280;9688;51.906;8.376;2022-11-11T03:10:51;102044.44;;;9.13;88.54
19112;BME280;9688;51.906;8.376;2022-11-11T03:13:36;102044.44;;;9.13;89.12
19112;BME280;9688;51.906;8.376;2022-11-11T03:16:24;102043.59;;;9.13;88.67
19112;BME280;9688;51.906;8.376;2022-11-11T03:19:27;102031.28;;;9.12;88.29
19112;BME280;9688;51.906;8.376;2022-11-11T03:22:12;102030.41;;;9.10;88.85
19112;BME280;9688;51.906;8.376;2022-11-11T03:24:58;102030.44;;;9.07;88.57
19112;BME280;9688;51.906;8.376;2022-11-11T03:28:01;102048.91;;;9.05;89.15
19112;BME280;9688;51.906;8.376;2022-11-11T03:30:48;102048.06;;;9.06;88.74
19112;BME280;9688;51.906;8.376;2022-11-11T03:33:35;102047.16;;;9.06;89.06
19112;BME280;9688;51.906;8.376;2022-11-11T03:36:20;102058.59;;;9.06;89.04
19112;BME280;9688;51.906;8.376;2022-11-11T03:39:26;102048.91;;;9.07;89.21
19112;BME280;9688;51.906;8.376;2022-11-11T03:42:11;102045.41;;;9.06;88.69
19112;BME280;9688;51.906;8.376;2022-11-11T03:44:57;102045.41;;;9.06;89.26
19112;BME280;9688;51.906;8.376;2022-11-11T03:47:42;102033.09;;;9.05;89.29
19112;BME280;9688;51.906;8.376;2022-11-11T03:50:29;102041.03;;;9.02;88.92
19112;BME280;9688;51.906;8.376;2022-11-11T03:53:14;102041.06;;;9.01;89.15
19112;BME280;9688;51.906;8.376;2022-11-11T03:56:00;102035.78;;;9.01;88.83
19112;BME280;9688;51.906;8.376;2022-11-11T03:58:45;102045.47;;;8.99;88.97
19112;BME280;9688;51.906;8.376;2022-11-11T04:01:31;102048.09;;;9.00;88.69
19112;BME280;9688;51.906;8.376;2022-11-11T04:04:34;102041.03;;;9.02;88.91
19112;BME280;9688;51.906;8.376;2022-11-11T04:07:39;102036.63;;;9.03;88.78
19112;BME280;9688;51.906;8.376;2022-11-11T04:10:42;102040.16;;;9.02;88.90
19112;BME280;9688;51.906;8.376;2022-11-11T04:13:28;102040.16;;;9.02;89.13
19112;BME280;9688;51.906;8.376;2022-11-11T04:16:46;102042.81;;;9.00;88.21
19112;BME280;9688;51.906;8.376;2022-11-11T04:19:33;102044.56;;;9.01;89.01
19112;BME280;9688;51.906;8.376;2022-11-11T04:22:40;102041.06;;;8.99;88.76
19112;BME280;9688;51.906;8.376;2022-11-11T04:25:26;102041.06;;;9.01;89.17
19112;BME280;9688;51.906;8.376;2022-11-11T04:28:38;102038.44;;;9.01;88.58
19112;BME280;9688;51.906;8.376;2022-11-11T04:31:41;102034.00;;;9.03;88.23
19112;BME280;9688;51.906;8.376;2022-11-11T04:34:41;102019.03;;;9.03;88.37
19112;BME280;9688;51.906;8.376;2022-11-11T04:37:30;102025.22;;;9.02;88.87
19112;BME280;9688;51.906;8.376;2022-11-11T04:40:18;102019.94;;;9.02;89.09
19112;BME280;9688;51.906;8.376;2022-11-11T04:43:21;102019.94;;;9.02;88.62
19112;BME280;9688;51.906;8.376;2022-11-11T04:46:07;102029.59;;;9.03;88.68
19112;BME280;9688;51.906;8.376;2022-11-11T04:48:52;102032.22;;;9.05;88.58
19112;BME280;9688;51.906;8.376;2022-11-11T04:51:37;102038.38;;;9.07;88.33
19112;BME280;9688;51.906;8.376;2022-11-11T04:54:41;102033.94;;;9.09;88.01
19112;BME280;9688;51.906;8.376;2022-11-11T04:57:43;102046.25;;;9.10;87.84
19112;BME280;9688;51.906;8.376;2022-11-11T05:00:30;102046.22;;;9.13;88.16
19112;BME280;9688;51.906;8.376;2022-11-11T05:03:17;102044.41;;;9.18;88.01
19112;BME280;9688;51.906;8.376;2022-11-11T05:06:01;102047.91;;;9.19;87.70
19112;BME280;9688;51.906;8.376;2022-11-11T05:09:16;102052.28;;;9.21;88.06
19112;BME280;9688;51.906;8.376;2022-11-11T05:12:02;102053.16;;;9.23;87.55
19112;BME280;9688;51.906;8.376;2022-11-11T05:14:49;102053.13;;;9.26;87.47
19112;BME280;9688;51.906;8.376;2022-11-11T05:17:52;102058.38;;;9.29;86.67
19112;BME280;9688;51.906;8.376;2022-11-11T05:20:54;102063.63;;;9.31;87.50
19112;BME280;9688;51.906;8.376;2022-11-11T05:23:58;102063.63;;;9.32;87.41
19112;BME280;9688;51.906;8.376;2022-11-11T05:27:01;102060.94;;;9.35;87.14
19112;BME280;9688;51.906;8.376;2022-11-11T05:29:46;102067.09;;;9.36;87.44
19112;BME280;9688;51.906;8.376;2022-11-11T05:32:34;102063.59;;;9.35;87.08
19112;BME280;9688;51.906;8.376;2022-11-11T05:35:19;102068.88;;;9.35;86.48
19112;BME280;9688;51.906;8.376;2022-11-11T05:38:05;102070.63;;;9.33;87.27
19112;BME280;9688;51.906;8.376;2022-11-11T05:41:07;102064.53;;;9.31;87.68
19112;BME280;9688;51.906;8.376;2022-11-11T05:43:52;102065.41;;;9.29;87.59
19112;BME280;9688;51.906;8.376;2022-11-11T05:46:37;102068.06;;;9.27;86.75
19112;BME280;9688;51.906;8.376;2022-11-11T05:49:25;102075.13;;;9.27;87.49
19112;BME280;9688;51.906;8.376;2022-11-11T05:52:12;102069.84;;;9.25;87.38
19112;BME280;9688;51.906;8.376;2022-11-11T05:54:59;102078.66;;;9.24;87.53
19112;BME280;9688;51.906;8.376;2022-11-11T05:57:45;102081.28;;;9.26;87.54
19112;BME280;9688;51.906;8.376;2022-11-11T06:00:33;102090.94;;;9.27;87.18
19112;BME280;9688;51.906;8.376;2022-11-11T06:03:20;102090.06;;;9.26;86.68
19112;BME280;9688;51.906;8.376;2022-11-11T06:06:07;102082.19;;;9.23;87.67
19112;BME280;9688;51.906;8.376;2022-11-11T06:08:52;102098.88;;;9.24;86.69
19112;BME280;9688;51.906;8.376;2022-11-11T06:11:38;102099.75;;;9.24;87.15
19112;BME280;9688;51.906;8.376;2022-11-11T06:14:24;102105.91;;;9.25;87.17
19112;BME280;9688;51.906;8.376;2022-11-11T06:17:09;102105.91;;;9.25;86.93
19112;BME280;9688;51.906;8.376;2022-11-11T06:19:55;102106.84;;;9.21;87.42
19112;BME280;9688;51.906;8.376;2022-11-11T06:22:42;102105.09;;;9.16;86.96
19112;BME280;9688;51.906;8.376;2022-11-11T06:25:43;102113.94;;;9.12;87.08
19112;BME280;9688;51.906;8.376;2022-11-11T06:28:48;102103.44;;;9.06;87.37
19112;BME280;9688;51.906;8.376;2022-11-11T06:31:34;102124.53;;;9.03;87.79
19112;BME280;9688;51.906;8.376;2022-11-11T06:34:19;102124.56;;;9.02;87.51
19112;BME280;9688;51.906;8.376;2022-11-11T06:37:05;102136.88;;;9.03;87.07
19112;BME280;9688;51.906;8.376;2022-11-11T06:39:52;102142.13;;;9.03;87.24
19112;BME280;9688;51.906;8.376;2022-11-11T06:42:39;102135.09;;;9.03;87.85
19112;BME280;9688;51.906;8.376;2022-11-11T06:45:27;102142.16;;;9.04;87.68
19112;BME280;9688;51.906;8.376;2022-11-11T06:48:13;102144.78;;;9.03;87.70
19112;BME280;9688;51.906;8.376;2022-11-11T06:51:01;102138.69;;;8.94;87.91
19112;BME280;9688;51.906;8.376;2022-11-11T06:53:48;102134.31;;;8.89;88.16
19112;BME280;9688;51.906;8.376;2022-11-11T06:56:35;102134.38;;;8.83;88.17
19112;BME280;9688;51.906;8.376;2022-11-11T06:59:22;102139.66;;;8.83;88.43
19112;BME280;9688;51.906;8.376;2022-11-11T07:02:11;102145.78;;;8.83;87.93
19112;BME280;9688;51.906;8.376;2022-11-11T07:04:56;102144.91;;;8.86;88.46
19112;BME280;9688;51.906;8.376;2022-11-11T07:07:43;102146.66;;;8.87;87.85
19112;BME280;9688;51.906;8.376;2022-11-11T07:10:29;102145.75;;;8.86;87.73
19112;BME280;9688;51.906;8.376;2022-11-11T07:13:16;102144.91;;;8.87;88.32
19112;BME280;9688;51.906;8.376;2022-11-11T07:16:02;102152.78;;;8.90;88.26
19112;BME280;9688;51.906;8.376;2022-11-11T07:18:47;102153.63;;;8.96;87.80
19112;BME280;9688;51.906;8.376;2022-11-11T07:21:33;102149.22;;;8.99;88.12
19112;BME280;9688;51.906;8.376;2022-11-11T07:24:18;102153.59;;;9.02;87.33
19112;BME280;9688;51.906;8.376;2022-11-11T07:27:04;102153.56;;;9.05;87.95
19112;BME280;9688;51.906;8.376;2022-11-11T07:29:50;102152.63;;;9.09;87.63
19112;BME280;9688;51.906;8.376;2022-11-11T07:32:38;102152.63;;;9.13;87.31
19112;BME280;9688;51.906;8.376;2022-11-11T07:35:28;102146.44;;;9.16;87.41
19112;BME280;9688;51.906;8.376;2022-11-11T07:38:13;102156.06;;;9.22;86.99
19112;BME280;9688;51.906;8.376;2022-11-11T07:40:58;102147.25;;;9.26;87.25
19112;BME280;9688;51.906;8.376;2022-11-11T07:43:44;102154.25;;;9.30;87.06
19112;BME280;9688;51.906;8.376;2022-11-11T07:46:31;102161.22;;;9.35;86.87
19112;BME280;9688;51.906;8.376;2022-11-11T07:49:17;102164.69;;;9.44;86.82
19112;BME280;9688;51.906;8.376;2022-11-11T07:52:03;102161.94;;;9.54;86.13
19112;BME280;9688;51.906;8.376;2022-11-11T07:54:48;102162.72;;;9.64;85.83
19112;BME280;9688;51.906;8.376;2022-11-11T07:57:34;102154.72;;;9.72;86.38
19112;BME280;9688;51.906;8.376;2022-11-11T08:00:20;102148.50;;;9.79;86.70
19112;BME280;9688;51.906;8.376;2022-11-11T08:03:07;102147.56;;;9.83;85.77
19112;BME280;9688;51.906;8.376;2022-11-11T08:05:56;102160.69;;;9.92;85.09
19112;BME280;9688;51.906;8.376;2022-11-11T08:08:42;102157.91;;;10.03;85.84
19112;BME280;9688;51.906;8.376;2022-11-11T08:11:27;102157.81;;;10.12;85.80
19112;BME280;9688;51.906;8.376;2022-11-11T08:14:30;102156.84;;;10.21;84.71
19112;BME280;9688;51.906;8.376;2022-11-11T08:17:16;102160.28;;;10.29;84.83
19112;BME280;9688;51.906;8.376;2022-11-11T08:20:08;102157.59;;;10.34;83.46
19112;BME280;9688;51.906;8.376;2022-11-11T08:22:54;102161.91;;;10.42;84.89
19112;BME280;9688;51.906;8.376;2022-11-11T08:25:43;102165.31;;;10.49;84.19
19112;BME280;9688;51.906;8.376;2022-11-11T08:28:31;102175.81;;;10.57;83.85
19112;BME280;9688;51.906;8.376;2022-11-11T08:31:17;102177.41;;;10.68;82.54
19112;BME280;9688;51.906;8.376;2022-11-11T08:34:03;102179.91;;;10.79;83.02
19112;BME280;9688;51.906;8.376;2022-11-11T08:36:50;102178.88;;;10.88;82.29
19112;BME280;9688;51.906;8.376;2022-11-11T08:39:35;102176.13;;;10.96;81.73
19112;BME280;9688;51.906;8.376;2022-11-11T08:42:20;102181.31;;;11.03;82.02
19112;BME280;9688;51.906;8.376;2022-11-11T08:45:07;102187.31;;;11.13;81.87
19112;BME280;9688;51.906;8.376;2022-11-11T08:47:53;102188.94;;;11.22;81.72
19112;BME280;9688;51.906;8.376;2022-11-11T08:50:40;102183.53;;;11.31;80.59
19112;BME280;9688;51.906;8.376;2022-11-11T08:53:27;102189.53;;;11.41;80.17
19112;BME280;9688;51.906;8.376;2022-11-11T08:56:13;102197.31;;;11.50;80.08
19112;BME280;9688;51.906;8.376;2022-11-11T08:58:58;102192.81;;;11.55;80.44
19112;BME280;9688;51.906;8.376;2022-11-11T09:01:45;102197.22;;;11.56;79.25
19112;BME280;9688;51.906;8.376;2022-11-11T09:04:31;102198.00;;;11.61;79.51
19112;BME280;9688;51.906;8.376;2022-11-11T09:07:19;102197.06;;;11.64;79.63
19112;BME280;9688;51.906;8.376;2022-11-11T09:10:08;102204.09;;;11.66;79.66
19112;BME280;9688;51.906;8.376;2022-11-11T09:12:55;102204.03;;;11.71;78.52
19112;BME280;9688;51.906;8.376;2022-11-11T09:15:40;102205.75;;;11.73;79.38
19112;BME280;9688;51.906;8.376;2022-11-11T09:18:26;102208.34;;;11.78;78.44
19112;BME280;9688;51.906;8.376;2022-11-11T09:21:14;102213.50;;;11.84;78.75
19112;BME280;9688;51.906;8.376;2022-11-11T09:24:01;102209.91;;;11.90;78.52
19112;BME280;9688;51.906;8.376;2022-11-11T09:26:48;102208.00;;;11.96;78.64
19112;BME280;9688;51.906;8.376;2022-11-11T09:29:33;102214.09;;;12.03;78.72
19112;BME280;9688;51.906;8.376;2022-11-11T09:32:19;102213.91;;;12.11;78.17
19112;BME280;9688;51.906;8.376;2022-11-11T09:35:05;102209.38;;;12.17;77.88
19112;BME280;9688;51.906;8.376;2022-11-11T09:37:52;102211.09;;;12.20;77.31
19112;BME280;9688;51.906;8.376;2022-11-11T09:40:47;102215.38;;;12.27;77.98
19112;BME280;9688;51.906;8.376;2022-11-11T09:43:43;102206.41;;;12.33;77.06
19112;BME280;9688;51.906;8.376;2022-11-11T09:46:34;102210.78;;;12.35;77.24
19112;BME280;9688;51.906;8.376;2022-11-11T09:49:51;102211.56;;;12.42;77.24
19112;BME280;9688;51.906;8.376;2022-11-11T09:52:42;102216.72;;;12.48;77.06
19112;BME280;9688;51.906;8.376;2022-11-11T09:55:35;102212.13;;;12.56;76.75
19112;BME280;9688;51.906;8.376;2022-11-11T09:58:27;102213.63;;;12.69;76.05
19112;BME280;9688;51.906;8.376;2022-11-11T10:01:18;102212.56;;;12.78;76.01
19112;BME280;9688;51.906;8.376;2022-11-11T10:04:16;102215.03;;;12.86;75.87
19112;BME280;9688;51.906;8.376;2022-11-11T10:07:11;102203.34;;;12.94;75.55
19112;BME280;9688;51.906;8.376;2022-11-11T10:10:10;102212.94;;;13.00;75.11
19112;BME280;9688;51.906;8.376;2022-11-11T10:12:58;102211.69;;;13.15;74.87
19112;BME280;9688;51.906;8.376;2022-11-11T10:15:53;102213.31;;;13.22;74.50
19112;BME280;9688;51.906;8.376;2022-11-11T10:18:58;102217.56;;;13.31;74.23
19112;BME280;9688;51.906;8.376;2022-11-11T10:21:50;102213.72;;;13.44;73.59
19112;BME280;9688;51.906;8.376;2022-11-11T10:24:39;102209.94;;;13.53;73.64
19112;BME280;9688;51.906;8.376;2022-11-11T10:27:26;102212.34;;;13.64;73.22
19112;BME280;9688;51.906;8.376;2022-11-11T10:30:18;102205.72;;;13.78;72.95
19112;BME280;9688;51.906;8.376;2022-11-11T10:33:12;102206.28;;;13.91;72.68
19112;BME280;9688;51.906;8.376;2022-11-11T10:36:04;102205.97;;;14.02;72.37
19112;BME280;9688;51.906;8.376;2022-11-11T10:38:54;102213.53;;;14.17;71.90
19112;BME280;9688;51.906;8.376;2022-11-11T10:41:45;102208.66;;;14.33;72.04
19112;BME280;9688;51.906;8.376;2022-11-11T10:44:33;102210.94;;;14.47;71.32
19112;BME280;9688;51.906;8.376;2022-11-11T10:47:29;102200.88;;;14.58;70.57
19112;BME280;9688;51.906;8.376;2022-11-11T10:50:20;102194.28;;;14.71;70.50
19112;BME280;9688;51.906;8.376;2022-11-11T10:53:14;102199.22;;;14.84;70.31
19112;BME280;9688;51.906;8.376;2022-11-11T10:56:13;102206.81;;;14.96;69.25
19112;BME280;9688;51.906;8.376;2022-11-11T10:59:12;102194.84;;;15.09;68.77
19112;BME280;9688;51.906;8.376;2022-11-11T11:02:04;102195.22;;;15.25;68.32
19112;BME280;9688;51.906;8.376;2022-11-11T11:04:54;102190.31;;;15.39;68.59
19112;BME280;9688;51.906;8.376;2022-11-11T11:07:48;102195.41;;;15.47;67.65
19112;BME280;9688;51.906;8.376;2022-11-11T11:10:46;102188.75;;;15.59;67.10
19112;BME280;9688;51.906;8.376;2022-11-11T11:13:42;102193.94;;;15.64;67.08
19112;BME280;9688;51.906;8.376;2022-11-11T11:16:33;102195.69;;;15.65;67.02
19112;BME280;9688;51.906;8.376;2022-11-11T11:19:23;102190.13;;;15.72;66.39
19112;BME280;9688;51.906;8.376;2022-11-11T11:22:12;102189.69;;;15.84;66.15
19112;BME280;9688;51.906;8.376;2022-11-11T11:25:09;102198.13;;;15.97;65.88
19112;BME280;9688;51.906;8.376;2022-11-11T11:28:07;102197.69;;;16.10;65.67
19112;BME280;9688;51.906;8.376;2022-11-11T11:31:00;102192.88;;;16.19;65.55
19112;BME280;9688;51.906;8.376;2022-11-11T11:33:52;102189.75;;;16.32;64.80
19112;BME280;9688;51.906;8.376;2022-11-11T11:36:38;102195.09;;;16.32;64.58
19112;BME280;9688;51.906;8.376;2022-11-11T11:39:31;102186.94;;;16.36;64.71
19112;BME280;9688;51.906;8.376;2022-11-11T11:42:26;102187.50;;;16.44;64.10
19112;BME280;9688;51.906;8.376;2022-11-11T11:45:21;102192.59;;;16.50;63.80
19112;BME280;9688;51.906;8.376;2022-11-11T11:48:18;102182.50;;;16.59;63.77
19112;BME280;9688;51.906;8.376;2022-11-11T11:51:16;102186.63;;;16.67;63.24
19112;BME280;9688;51.906;8.376;2022-11-11T11:54:44;102187.31;;;16.72;63.03
19112;BME280;9688;51.906;8.376;2022-11-11T11:57:45;102186.09;;;16.81;63.07
19112;BME280;9688;51.906;8.376;2022-11-11T12:00:42;102185.84;;;16.87;62.63
19112;BME280;9688;51.906;8.376;2022-11-11T12:04:02;102172.41;;;16.90;62.03
19112;BME280;9688;51.906;8.376;2022-11-11T12:07:04;102173.84;;;16.99;61.61
19112;BME280;9688;51.906;8.376;2022-11-11T12:10:00;102175.38;;;17.05;61.58
19112;BME280;9688;51.906;8.376;2022-11-11T12:12:55;102173.31;;;17.11;61.44
19112;BME280;9688;51.906;8.376;2022-11-11T12:15:52;102171.22;;;17.20;60.85
19112;BME280;9688;51.906;8.376;2022-11-11T12:19:00;102171.09;;;17.23;60.08
19112;BME280;9688;51.906;8.376;2022-11-11T12:21:57;102164.69;;;17.27;60.06
19112;BME280;9688;51.906;8.376;2022-11-11T12:24:54;102166.41;;;17.28;59.30
19112;BME280;9688;51.906;8.376;2022-11-11T12:27:49;102168.81;;;17.34;59.11
19112;BME280;9688;51.906;8.376;2022-11-11T12:30:47;102164.03;;;17.42;58.41
19112;BME280;9688;51.906;8.376;2022-11-11T12:33:51;102155.00;;;17.45;58.26
19112;BME280;9688;51.906;8.376;2022-11-11T12:36:44;102149.53;;;17.48;58.01
19112;BME280;9688;51.906;8.376;2022-11-11T12:39:48;102147.66;;;17.50;57.85
19112;BME280;9688;51.906;8.376;2022-11-11T12:42:49;102146.53;;;17.55;56.91
19112;BME280;9688;51.906;8.376;2022-11-11T12:45:44;102149.13;;;17.57;57.33
19112;BME280;9688;51.906;8.376;2022-11-11T12:48:44;102150.16;;;17.54;57.20
19112;BME280;9688;51.906;8.376;2022-11-11T12:51:43;102148.25;;;17.56;56.86
19112;BME280;9688;51.906;8.376;2022-11-11T12:54:40;102153.41;;;17.61;57.02
19112;BME280;9688;51.906;8.376;2022-11-11T12:57:34;102146.22;;;17.63;56.86
19112;BME280;9688;51.906;8.376;2022-11-11T13:00:25;102148.94;;;17.61;56.48
19112;BME280;9688;51.906;8.376;2022-11-11T13:03:20;102143.59;;;17.61;56.02
19112;BME280;9688;51.906;8.376;2022-11-11T13:06:22;102152.47;;;17.62;56.17
19112;BME280;9688;51.906;8.376;2022-11-11T13:09:46;102150.75;;;17.61;55.74
19112;BME280;9688;51.906;8.376;2022-11-11T13:12:39;102141.78;;;17.62;56.00
19112;BME280;9688;51.906;8.376;2022-11-11T13:15:29;102154.97;;;17.67;55.81
19112;BME280;9688;51.906;8.376;2022-11-11T13:18:19;102149.28;;;17.74;55.04
19112;BME280;9688;51.906;8.376;2022-11-11T13:21:08;102157.06;;;17.80;55.00
19112;BME280;9688;51.906;8.376;2022-11-11T13:23:56;102158.00;;;17.79;55.24
19112;BME280;9688;51.906;8.376;2022-11-11T13:26:44;102155.19;;;17.82;54.67
19112;BME280;9688;51.906;8.376;2022-11-11T13:32:53;102154.63;;;17.95;54.63
19112;BME280;9688;51.906;8.376;2022-11-11T13:35:43;102167.88;;;17.98;54.80
19112;BME280;9688;51.906;8.376;2022-11-11T13:38:32;102170.78;;;17.93;55.23
19112;BME280;9688;51.906;8.376;2022-11-11T13:41:29;102171.69;;;17.92;55.07
19112;BME280;9688;51.906;8.376;2022-11-11T13:44:20;102170.63;;;17.96;54.91
19112;BME280;9688;51.906;8.376;2022-11-11T13:47:13;102176.91;;;17.95;54.39
19112;BME280;9688;51.906;8.376;2022-11-11T13:50:06;102178.91;;;17.90;54.51
19112;BME280;9688;51.906;8.376;2022-11-11T13:52:56;102177.00;;;17.94;54.28
19112;BME280;9688;51.906;8.376;2022-11-11T13:55:44;102177.91;;;17.93;54.47
19112;BME280;9688;51.906;8.376;2022-11-11T13:58:35;102181.59;;;17.90;53.82
19112;BME280;9688;51.906;8.376;2022-11-11T14:01:23;102183.63;;;17.85;53.89
19112;BME280;9688;51.906;8.376;2022-11-11T14:04:12;102187.53;;;17.76;53.55
19112;BME280;9688;51.906;8.376;2022-11-11T14:07:00;102187.00;;;17.68;54.07
19112;BME280;9688;51.906;8.376;2022-11-11T14:09:59;102190.72;;;17.64;53.78
19112;BME280;9688;51.906;8.376;2022-11-11T14:12:53;102195.25;;;17.62;54.26
19112;BME280;9688;51.906;8.376;2022-11-11T14:15:44;102193.53;;;17.61;54.28
19112;BME280;9688;51.906;8.376;2022-11-11T14:18:47;102191.13;;;17.55;53.94
19112;BME280;9688;51.906;8.376;2022-11-11T14:21:47;102197.75;;;17.46;54.00
19112;BME280;9688;51.906;8.376;2022-11-11T14:24:37;102192.72;;;17.38;54.78
19112;BME280;9688;51.906;8.376;2022-11-11T14:27:27;102197.06;;;17.41;53.98
19112;BME280;9688;51.906;8.376;2022-11-11T14:30:38;102197.25;;;17.79;53.69
19112;BME280;9688;51.906;8.376;2022-11-11T14:33:39;102192.84;;;18.38;51.76
19112;BME280;9688;51.906;8.376;2022-11-11T14:36:38;102190.38;;;18.33;52.02
19112;BME280;9688;51.906;8.376;2022-11-11T14:39:37;102189.88;;;18.44;51.84
19112;BME280;9688;51.906;8.376;2022-11-11T14:42:45;102183.84;;;18.20;52.46
19112;BME280;9688;51.906;8.376;2022-11-11T14:46:05;102188.88;;;17.87;53.65
19112;BME280;9688;51.906;8.376;2022-11-11T14:49:00;102195.34;;;17.60;53.90
19112;BME280;9688;51.906;8.376;2022-11-11T14:52:04;102187.41;;;17.37;54.63
19112;BME280;9688;51.906;8.376;2022-11-11T14:55:15;102204.22;;;17.19;54.71
19112;BME280;9688;51.906;8.376;2022-11-11T14:58:10;102194.00;;;17.06;55.44
19112;BME280;9688;51.906;8.376;2022-11-11T15:00:58;102200.00;;;16.91;55.61
19112;BME280;9688;51.906;8.376;2022-11-11T15:03:48;102189.72;;;16.80;55.54
19112;BME280;9688;51.906;8.376;2022-11-11T15:06:44;102197.19;;;16.70;56.21
19112;BME280;9688;51.906;8.376;2022-11-11T15:13:08;102199.13;;;16.43;56.87
19112;BME280;9688;51.906;8.376;2022-11-11T15:16:07;102191.56;;;16.31;56.58
19112;BME280;9688;51.906;8.376;2022-11-11T15:19:18;102192.03;;;16.19;57.35
19112;BME280;9688;51.906;8.376;2022-11-11T15:22:23;102184.44;;;16.06;57.45